sensor_id;sensor_type;location;lat;lon;timestamp;P1;durP1;ratioP1;P2;durP2;ratioP2
26106;SDS011;13866;50.748;12.630;2022-07-29T00:00:46;8.73;;;4.40;;
26106;SDS011;13866;50.748;12.630;2022-07-29T00:03:12;10.13;;;4.53;;
26106;SDS011;13866;50.748;12.630;2022-07-29T00:05:38;5.17;;;4.70;;
26106;SDS011;13866;50.748;12.630;2022-07-29T00:08:04;4.77;;;4.23;;
26106;SDS011;13866;50.748;12.630;2022-07-29T00:10:30;19.77;;;4.83;;
26106;SDS011;13866;50.748;12.630;2022-07-29T00:12:56;7.43;;;5.40;;
26106;SDS011;13866;50.748;12.630;2022-07-29T00:15:21;4.63;;;4.33;;
26106;SDS011;13866;50.748;12.630;2022-07-29T00:17:47;4.53;;;4.13;;
26106;SDS011;13866;50.748;12.630;2022-07-29T00:20:12;5.27;;;5.00;;
26106;SDS011;13866;50.748;12.630;2022-07-29T00:22:38;4.27;;;4.10;;
26106;SDS011;13866;50.748;12.630;2022-07-29T00:25:04;9.70;;;4.87;;
26106;SDS011;13866;50.748;12.630;2022-07-29T00:27:31;5.50;;;5.03;;
26106;SDS011;13866;50.748;12.630;2022-07-29T00:29:57;4.90;;;4.47;;
26106;SDS011;13866;50.748;12.630;2022-07-29T00:32:22;4.03;;;3.93;;
26106;SDS011;13866;50.748;12.630;2022-07-29T00:34:47;5.73;;;5.00;;
26106;SDS011;13866;50.748;12.630;2022-07-29T00:37:32;4.67;;;4.37;;
26106;SDS011;13866;50.748;12.630;2022-07-29T00:39:57;5.40;;;5.10;;
26106;SDS011;13866;50.748;12.630;2022-07-29T00:42:23;4.73;;;4.43;;
26106;SDS011;13866;50.748;12.630;2022-07-29T00:44:49;7.63;;;4.30;;
26106;SDS011;13866;50.748;12.630;2022-07-29T00:47:14;5.27;;;4.87;;
26106;SDS011;13866;50.748;12.630;2022-07-29T00:49:40;6.33;;;4.80;;
26106;SDS011;13866;50.748;12.630;2022-07-29T00:52:07;4.70;;;4.50;;
26106;SDS011;13866;50.748;12.630;2022-07-29T00:54:33;4.77;;;4.47;;
26106;SDS011;13866;50.748;12.630;2022-07-29T00:57:00;4.80;;;4.43;;
26106;SDS011;13866;50.748;12.630;2022-07-29T00:59:26;6.60;;;4.73;;
26106;SDS011;13866;50.748;12.630;2022-07-29T01:01:52;9.90;;;4.63;;
26106;SDS011;13866;50.748;12.630;2022-07-29T01:04:18;8.73;;;5.50;;
26106;SDS011;13866;50.748;12.630;2022-07-29T01:06:45;6.33;;;4.37;;
26106;SDS011;13866;50.748;12.630;2022-07-29T01:09:11;10.23;;;5.73;;
26106;SDS011;13866;50.748;12.630;2022-07-29T01:11:38;6.30;;;5.30;;
26106;SDS011;13866;50.748;12.630;2022-07-29T01:14:04;7.07;;;4.80;;
26106;SDS011;13866;50.748;12.630;2022-07-29T01:16:32;4.60;;;4.40;;
26106;SDS011;13866;50.748;12.630;2022-07-29T01:19:19;5.70;;;5.30;;
26106;SDS011;13866;50.748;12.630;2022-07-29T01:22:25;5.23;;;4.90;;
26106;SDS011;13866;50.748;12.630;2022-07-29T01:28:01;7.73;;;5.27;;
26106;SDS011;13866;50.748;12.630;2022-07-29T01:30:38;8.30;;;5.27;;
26106;SDS011;13866;50.748;12.630;2022-07-29T01:33:07;6.80;;;5.00;;
26106;SDS011;13866;50.748;12.630;2022-07-29T01:35:57;5.23;;;4.83;;
26106;SDS011;13866;50.748;12.630;2022-07-29T01:38:24;4.70;;;4.27;;
26106;SDS011;13866;50.748;12.630;2022-07-29T01:40:53;23.13;;;5.37;;
26106;SDS011;13866;50.748;12.630;2022-07-29T01:43:29;8.40;;;5.70;;
26106;SDS011;13866;50.748;12.630;2022-07-29T01:46:01;10.13;;;5.20;;
26106;SDS011;13866;50.748;12.630;2022-07-29T01:48:31;18.07;;;7.07;;
26106;SDS011;13866;50.748;12.630;2022-07-29T01:51:02;6.20;;;5.60;;
26106;SDS011;13866;50.748;12.630;2022-07-29T01:53:34;5.90;;;4.60;;
26106;SDS011;13866;50.748;12.630;2022-07-29T01:56:03;6.07;;;5.13;;
26106;SDS011;13866;50.748;12.630;2022-07-29T01:58:31;6.10;;;5.40;;
26106;SDS011;13866;50.748;12.630;2022-07-29T02:00:58;9.30;;;5.90;;
26106;SDS011;13866;50.748;12.630;2022-07-29T02:03:24;6.00;;;5.47;;
26106;SDS011;13866;50.748;12.630;2022-07-29T02:05:52;5.77;;;5.37;;
26106;SDS011;13866;50.748;12.630;2022-07-29T02:08:18;6.77;;;6.10;;
26106;SDS011;13866;50.748;12.630;2022-07-29T02:10:45;7.97;;;5.60;;
26106;SDS011;13866;50.748;12.630;2022-07-29T02:13:12;9.43;;;5.93;;
26106;SDS011;13866;50.748;12.630;2022-07-29T02:15:38;6.73;;;6.03;;
26106;SDS011;13866;50.748;12.630;2022-07-29T02:18:07;9.97;;;6.60;;
26106;SDS011;13866;50.748;12.630;2022-07-29T02:20:36;8.30;;;5.97;;
26106;SDS011;13866;50.748;12.630;2022-07-29T02:23:04;5.83;;;5.33;;
26106;SDS011;13866;50.748;12.630;2022-07-29T02:25:30;7.20;;;6.50;;
26106;SDS011;13866;50.748;12.630;2022-07-29T02:27:56;6.50;;;5.67;;
26106;SDS011;13866;50.748;12.630;2022-07-29T02:30:25;6.57;;;5.73;;
26106;SDS011;13866;50.748;12.630;2022-07-29T02:32:52;6.77;;;6.30;;
26106;SDS011;13866;50.748;12.630;2022-07-29T02:35:19;9.10;;;6.70;;
26106;SDS011;13866;50.748;12.630;2022-07-29T02:37:46;7.20;;;6.27;;
26106;SDS011;13866;50.748;12.630;2022-07-29T02:40:35;7.60;;;5.90;;
26106;SDS011;13866;50.748;12.630;2022-07-29T02:43:04;9.27;;;6.37;;
26106;SDS011;13866;50.748;12.630;2022-07-29T02:45:32;13.23;;;6.63;;
26106;SDS011;13866;50.748;12.630;2022-07-29T02:47:59;6.00;;;5.60;;
26106;SDS011;13866;50.748;12.630;2022-07-29T02:50:31;5.60;;;5.07;;
26106;SDS011;13866;50.748;12.630;2022-07-29T02:55:59;7.07;;;6.40;;
26106;SDS011;13866;50.748;12.630;2022-07-29T02:58:30;6.47;;;6.07;;
26106;SDS011;13866;50.748;12.630;2022-07-29T03:01:04;7.00;;;6.40;;
26106;SDS011;13866;50.748;12.630;2022-07-29T03:03:37;8.97;;;5.50;;
26106;SDS011;13866;50.748;12.630;2022-07-29T03:06:03;16.13;;;5.93;;
26106;SDS011;13866;50.748;12.630;2022-07-29T03:08:30;8.37;;;6.57;;
26106;SDS011;13866;50.748;12.630;2022-07-29T03:10:57;10.87;;;5.80;;
26106;SDS011;13866;50.748;12.630;2022-07-29T03:13:23;6.47;;;5.73;;
26106;SDS011;13866;50.748;12.630;2022-07-29T03:15:49;9.20;;;6.30;;
26106;SDS011;13866;50.748;12.630;2022-07-29T03:18:16;11.00;;;6.60;;
26106;SDS011;13866;50.748;12.630;2022-07-29T03:20:42;14.23;;;6.40;;
26106;SDS011;13866;50.748;12.630;2022-07-29T03:23:07;6.43;;;5.80;;
26106;SDS011;13866;50.748;12.630;2022-07-29T03:25:33;5.57;;;5.17;;
26106;SDS011;13866;50.748;12.630;2022-07-29T03:27:59;6.67;;;5.80;;
26106;SDS011;13866;50.748;12.630;2022-07-29T03:30:24;5.47;;;5.03;;
26106;SDS011;13866;50.748;12.630;2022-07-29T03:32:50;6.23;;;5.73;;
26106;SDS011;13866;50.748;12.630;2022-07-29T03:35:16;5.97;;;5.47;;
26106;SDS011;13866;50.748;12.630;2022-07-29T03:37:42;10.80;;;5.53;;
26106;SDS011;13866;50.748;12.630;2022-07-29T03:40:10;6.10;;;5.10;;
26106;SDS011;13866;50.748;12.630;2022-07-29T03:42:39;7.20;;;5.37;;
26106;SDS011;13866;50.748;12.630;2022-07-29T03:45:07;5.87;;;5.40;;
26106;SDS011;13866;50.748;12.630;2022-07-29T03:47:38;9.97;;;5.23;;
26106;SDS011;13866;50.748;12.630;2022-07-29T03:50:10;5.80;;;5.20;;
26106;SDS011;13866;50.748;12.630;2022-07-29T03:52:39;5.07;;;4.63;;
26106;SDS011;13866;50.748;12.630;2022-07-29T03:55:05;6.90;;;5.27;;
26106;SDS011;13866;50.748;12.630;2022-07-29T03:57:31;4.97;;;4.57;;
26106;SDS011;13866;50.748;12.630;2022-07-29T03:59:58;5.40;;;4.67;;
26106;SDS011;13866;50.748;12.630;2022-07-29T04:02:26;4.93;;;4.70;;
26106;SDS011;13866;50.748;12.630;2022-07-29T04:04:51;7.97;;;4.50;;
26106;SDS011;13866;50.748;12.630;2022-07-29T04:07:17;5.77;;;5.27;;
26106;SDS011;13866;50.748;12.630;2022-07-29T04:09:43;5.47;;;4.73;;
26106;SDS011;13866;50.748;12.630;2022-07-29T04:12:08;5.97;;;5.33;;
26106;SDS011;13866;50.748;12.630;2022-07-29T04:14:34;16.47;;;5.37;;
26106;SDS011;13866;50.748;12.630;2022-07-29T04:17:01;4.70;;;4.30;;
26106;SDS011;13866;50.748;12.630;2022-07-29T04:19:28;4.27;;;3.93;;
26106;SDS011;13866;50.748;12.630;2022-07-29T04:21:53;4.63;;;4.17;;
26106;SDS011;13866;50.748;12.630;2022-07-29T04:24:19;13.23;;;4.83;;
26106;SDS011;13866;50.748;12.630;2022-07-29T04:26:45;10.43;;;4.23;;
26106;SDS011;13866;50.748;12.630;2022-07-29T04:29:11;5.57;;;5.17;;
26106;SDS011;13866;50.748;12.630;2022-07-29T04:31:39;6.90;;;4.80;;
26106;SDS011;13866;50.748;12.630;2022-07-29T04:34:05;8.97;;;4.90;;
26106;SDS011;13866;50.748;12.630;2022-07-29T04:36:30;5.53;;;5.03;;
26106;SDS011;13866;50.748;12.630;2022-07-29T04:38:56;4.90;;;4.50;;
26106;SDS011;13866;50.748;12.630;2022-07-29T04:41:21;5.53;;;5.03;;
26106;SDS011;13866;50.748;12.630;2022-07-29T04:43:47;7.17;;;4.73;;
26106;SDS011;13866;50.748;12.630;2022-07-29T04:46:12;6.67;;;4.73;;
26106;SDS011;13866;50.748;12.630;2022-07-29T04:48:38;10.40;;;5.00;;
26106;SDS011;13866;50.748;12.630;2022-07-29T04:51:03;7.03;;;4.40;;
26106;SDS011;13866;50.748;12.630;2022-07-29T04:53:28;16.87;;;5.03;;
26106;SDS011;13866;50.748;12.630;2022-07-29T04:55:54;4.60;;;4.27;;
26106;SDS011;13866;50.748;12.630;2022-07-29T04:58:20;5.40;;;4.10;;
26106;SDS011;13866;50.748;12.630;2022-07-29T05:00:45;6.60;;;5.80;;
26106;SDS011;13866;50.748;12.630;2022-07-29T05:03:11;9.93;;;5.07;;
26106;SDS011;13866;50.748;12.630;2022-07-29T05:05:36;15.27;;;5.13;;
26106;SDS011;13866;50.748;12.630;2022-07-29T05:08:02;4.50;;;4.20;;
26106;SDS011;13866;50.748;12.630;2022-07-29T05:10:27;6.10;;;4.30;;
26106;SDS011;13866;50.748;12.630;2022-07-29T05:12:53;6.43;;;3.43;;
26106;SDS011;13866;50.748;12.630;2022-07-29T05:15:19;10.13;;;5.60;;
26106;SDS011;13866;50.748;12.630;2022-07-29T05:17:44;6.00;;;4.83;;
26106;SDS011;13866;50.748;12.630;2022-07-29T05:20:10;4.80;;;4.60;;
26106;SDS011;13866;50.748;12.630;2022-07-29T05:22:35;4.80;;;4.47;;
26106;SDS011;13866;50.748;12.630;2022-07-29T05:25:01;5.47;;;4.97;;
26106;SDS011;13866;50.748;12.630;2022-07-29T05:27:27;9.10;;;3.80;;
26106;SDS011;13866;50.748;12.630;2022-07-29T05:29:53;11.70;;;4.40;;
26106;SDS011;13866;50.748;12.630;2022-07-29T05:32:18;4.57;;;4.23;;
26106;SDS011;13866;50.748;12.630;2022-07-29T05:34:44;6.50;;;4.43;;
26106;SDS011;13866;50.748;12.630;2022-07-29T05:37:09;7.50;;;5.00;;
26106;SDS011;13866;50.748;12.630;2022-07-29T05:39:34;6.23;;;4.50;;
26106;SDS011;13866;50.748;12.630;2022-07-29T05:42:00;4.60;;;4.40;;
26106;SDS011;13866;50.748;12.630;2022-07-29T05:44:25;10.70;;;4.47;;
26106;SDS011;13866;50.748;12.630;2022-07-29T05:46:51;5.20;;;4.80;;
26106;SDS011;13866;50.748;12.630;2022-07-29T05:49:16;8.67;;;4.27;;
26106;SDS011;13866;50.748;12.630;2022-07-29T05:51:42;9.30;;;4.97;;
26106;SDS011;13866;50.748;12.630;2022-07-29T05:54:07;5.73;;;4.03;;
26106;SDS011;13866;50.748;12.630;2022-07-29T05:56:33;3.90;;;3.70;;
26106;SDS011;13866;50.748;12.630;2022-07-29T05:59:00;11.63;;;3.70;;
26106;SDS011;13866;50.748;12.630;2022-07-29T06:01:26;4.73;;;3.87;;
26106;SDS011;13866;50.748;12.630;2022-07-29T06:03:51;4.73;;;4.40;;
26106;SDS011;13866;50.748;12.630;2022-07-29T06:06:17;4.77;;;4.17;;
26106;SDS011;13866;50.748;12.630;2022-07-29T06:08:42;3.60;;;3.33;;
26106;SDS011;13866;50.748;12.630;2022-07-29T06:11:08;4.43;;;4.17;;
26106;SDS011;13866;50.748;12.630;2022-07-29T06:13:34;7.47;;;4.07;;
26106;SDS011;13866;50.748;12.630;2022-07-29T06:15:59;4.67;;;4.17;;
26106;SDS011;13866;50.748;12.630;2022-07-29T06:18:25;8.77;;;3.20;;
26106;SDS011;13866;50.748;12.630;2022-07-29T06:20:50;7.83;;;3.47;;
26106;SDS011;13866;50.748;12.630;2022-07-29T06:23:16;11.17;;;4.57;;
26106;SDS011;13866;50.748;12.630;2022-07-29T06:25:42;9.63;;;4.37;;
26106;SDS011;13866;50.748;12.630;2022-07-29T06:28:08;5.87;;;4.10;;
26106;SDS011;13866;50.748;12.630;2022-07-29T06:30:33;11.80;;;5.53;;
26106;SDS011;13866;50.748;12.630;2022-07-29T06:32:59;5.07;;;4.77;;
26106;SDS011;13866;50.748;12.630;2022-07-29T06:35:26;4.67;;;3.97;;
26106;SDS011;13866;50.748;12.630;2022-07-29T06:37:51;4.13;;;3.60;;
26106;SDS011;13866;50.748;12.630;2022-07-29T06:40:17;11.10;;;4.07;;
26106;SDS011;13866;50.748;12.630;2022-07-29T06:43:01;4.43;;;3.53;;
26106;SDS011;13866;50.748;12.630;2022-07-29T06:45:27;3.57;;;3.47;;
26106;SDS011;13866;50.748;12.630;2022-07-29T06:47:52;10.90;;;4.03;;
26106;SDS011;13866;50.748;12.630;2022-07-29T06:50:18;9.17;;;4.50;;
26106;SDS011;13866;50.748;12.630;2022-07-29T06:52:43;4.67;;;4.07;;
26106;SDS011;13866;50.748;12.630;2022-07-29T06:55:09;8.00;;;4.10;;
26106;SDS011;13866;50.748;12.630;2022-07-29T06:57:34;7.13;;;4.40;;
26106;SDS011;13866;50.748;12.630;2022-07-29T07:00:00;12.00;;;4.93;;
26106;SDS011;13866;50.748;12.630;2022-07-29T07:02:26;4.87;;;4.47;;
26106;SDS011;13866;50.748;12.630;2022-07-29T07:04:51;4.70;;;3.70;;
26106;SDS011;13866;50.748;12.630;2022-07-29T07:07:17;9.77;;;4.27;;
26106;SDS011;13866;50.748;12.630;2022-07-29T07:09:42;8.90;;;4.60;;
26106;SDS011;13866;50.748;12.630;2022-07-29T07:12:08;6.07;;;4.57;;
26106;SDS011;13866;50.748;12.630;2022-07-29T07:14:34;11.43;;;5.17;;
26106;SDS011;13866;50.748;12.630;2022-07-29T07:16:59;7.07;;;4.70;;
26106;SDS011;13866;50.748;12.630;2022-07-29T07:19:25;11.37;;;4.00;;
26106;SDS011;13866;50.748;12.630;2022-07-29T07:21:54;8.93;;;5.00;;
26106;SDS011;13866;50.748;12.630;2022-07-29T07:24:19;4.07;;;3.77;;
26106;SDS011;13866;50.748;12.630;2022-07-29T07:26:44;5.07;;;4.43;;
26106;SDS011;13866;50.748;12.630;2022-07-29T07:29:10;10.97;;;3.97;;
26106;SDS011;13866;50.748;12.630;2022-07-29T07:31:36;7.00;;;3.57;;
26106;SDS011;13866;50.748;12.630;2022-07-29T07:34:02;5.07;;;3.93;;
26106;SDS011;13866;50.748;12.630;2022-07-29T07:36:28;3.67;;;3.10;;
26106;SDS011;13866;50.748;12.630;2022-07-29T07:38:53;11.83;;;3.70;;
26106;SDS011;13866;50.748;12.630;2022-07-29T07:41:19;14.03;;;3.37;;
26106;SDS011;13866;50.748;12.630;2022-07-29T07:43:45;8.03;;;3.27;;
26106;SDS011;13866;50.748;12.630;2022-07-29T07:46:10;15.47;;;4.67;;
26106;SDS011;13866;50.748;12.630;2022-07-29T07:48:36;4.07;;;3.90;;
26106;SDS011;13866;50.748;12.630;2022-07-29T07:51:01;7.20;;;3.60;;
26106;SDS011;13866;50.748;12.630;2022-07-29T07:53:27;4.80;;;3.50;;
26106;SDS011;13866;50.748;12.630;2022-07-29T07:55:54;13.43;;;4.17;;
26106;SDS011;13866;50.748;12.630;2022-07-29T07:58:20;5.70;;;4.20;;
26106;SDS011;13866;50.748;12.630;2022-07-29T08:00:45;8.00;;;3.17;;
26106;SDS011;13866;50.748;12.630;2022-07-29T08:03:12;8.30;;;3.87;;
26106;SDS011;13866;50.748;12.630;2022-07-29T08:05:38;25.93;;;5.00;;
26106;SDS011;13866;50.748;12.630;2022-07-29T08:08:04;13.00;;;4.83;;
26106;SDS011;13866;50.748;12.630;2022-07-29T08:10:30;30.70;;;3.90;;
26106;SDS011;13866;50.748;12.630;2022-07-29T08:13:14;8.13;;;3.07;;
26106;SDS011;13866;50.748;12.630;2022-07-29T08:15:39;19.73;;;3.60;;
26106;SDS011;13866;50.748;12.630;2022-07-29T08:18:06;3.97;;;3.63;;
26106;SDS011;13866;50.748;12.630;2022-07-29T08:20:32;6.73;;;2.87;;
26106;SDS011;13866;50.748;12.630;2022-07-29T08:23:00;4.27;;;3.80;;
26106;SDS011;13866;50.748;12.630;2022-07-29T08:25:26;7.93;;;3.70;;
26106;SDS011;13866;50.748;12.630;2022-07-29T08:27:51;11.37;;;4.10;;
26106;SDS011;13866;50.748;12.630;2022-07-29T08:30:17;26.47;;;3.93;;
26106;SDS011;13866;50.748;12.630;2022-07-29T08:32:42;14.23;;;2.93;;
26106;SDS011;13866;50.748;12.630;2022-07-29T08:35:08;20.13;;;3.40;;
26106;SDS011;13866;50.748;12.630;2022-07-29T08:37:33;4.33;;;2.87;;
26106;SDS011;13866;50.748;12.630;2022-07-29T08:39:59;5.37;;;3.30;;
26106;SDS011;13866;50.748;12.630;2022-07-29T08:42:24;5.07;;;3.33;;
26106;SDS011;13866;50.748;12.630;2022-07-29T08:44:50;3.23;;;3.13;;
26106;SDS011;13866;50.748;12.630;2022-07-29T08:47:16;4.53;;;2.73;;
26106;SDS011;13866;50.748;12.630;2022-07-29T08:49:42;6.33;;;2.73;;
26106;SDS011;13866;50.748;12.630;2022-07-29T08:52:10;13.87;;;2.90;;
26106;SDS011;13866;50.748;12.630;2022-07-29T08:54:36;2.80;;;2.70;;
26106;SDS011;13866;50.748;12.630;2022-07-29T08:57:03;23.67;;;3.33;;
26106;SDS011;13866;50.748;12.630;2022-07-29T08:59:30;6.37;;;2.33;;
26106;SDS011;13866;50.748;12.630;2022-07-29T09:01:58;3.03;;;2.83;;
26106;SDS011;13866;50.748;12.630;2022-07-29T09:04:26;2.63;;;2.43;;
26106;SDS011;13866;50.748;12.630;2022-07-29T09:06:55;5.33;;;2.80;;
26106;SDS011;13866;50.748;12.630;2022-07-29T09:09:25;4.60;;;2.53;;
26106;SDS011;13866;50.748;12.630;2022-07-29T09:11:50;2.33;;;2.23;;
26106;SDS011;13866;50.748;12.630;2022-07-29T09:14:18;13.73;;;2.70;;
26106;SDS011;13866;50.748;12.630;2022-07-29T09:16:53;4.73;;;2.67;;
26106;SDS011;13866;50.748;12.630;2022-07-29T09:21:48;3.30;;;2.73;;
26106;SDS011;13866;50.748;12.630;2022-07-29T09:24:23;7.50;;;2.93;;
26106;SDS011;13866;50.748;12.630;2022-07-29T09:26:53;3.93;;;2.60;;
26106;SDS011;13866;50.748;12.630;2022-07-29T09:29:19;2.37;;;2.27;;
26106;SDS011;13866;50.748;12.630;2022-07-29T09:31:47;9.07;;;2.23;;
26106;SDS011;13866;50.748;12.630;2022-07-29T09:34:16;2.47;;;2.37;;
26106;SDS011;13866;50.748;12.630;2022-07-29T09:36:46;2.73;;;2.17;;
26106;SDS011;13866;50.748;12.630;2022-07-29T09:39:14;2.57;;;2.47;;
26106;SDS011;13866;50.748;12.630;2022-07-29T09:41:50;5.33;;;2.23;;
26106;SDS011;13866;50.748;12.630;2022-07-29T09:44:20;3.60;;;2.37;;
26106;SDS011;13866;50.748;12.630;2022-07-29T09:46:59;4.33;;;2.43;;
26106;SDS011;13866;50.748;12.630;2022-07-29T09:49:33;2.30;;;2.20;;
26106;SDS011;13866;50.748;12.630;2022-07-29T09:52:03;3.13;;;2.33;;
26106;SDS011;13866;50.748;12.630;2022-07-29T09:54:31;3.90;;;2.83;;
26106;SDS011;13866;50.748;12.630;2022-07-29T09:57:21;10.83;;;2.97;;
26106;SDS011;13866;50.748;12.630;2022-07-29T09:59:58;5.13;;;2.40;;
26106;SDS011;13866;50.748;12.630;2022-07-29T10:02:32;6.10;;;2.53;;
26106;SDS011;13866;50.748;12.630;2022-07-29T10:04:59;3.37;;;2.30;;
26106;SDS011;13866;50.748;12.630;2022-07-29T10:07:26;2.93;;;2.73;;
26106;SDS011;13866;50.748;12.630;2022-07-29T10:10:07;3.17;;;3.07;;
26106;SDS011;13866;50.748;12.630;2022-07-29T10:12:33;9.00;;;2.20;;
26106;SDS011;13866;50.748;12.630;2022-07-29T10:14:58;7.50;;;2.90;;
26106;SDS011;13866;50.748;12.630;2022-07-29T10:17:26;3.30;;;3.00;;
26106;SDS011;13866;50.748;12.630;2022-07-29T10:19:53;3.50;;;2.87;;
26106;SDS011;13866;50.748;12.630;2022-07-29T10:22:18;5.40;;;2.50;;
26106;SDS011;13866;50.748;12.630;2022-07-29T10:24:44;3.30;;;2.53;;
26106;SDS011;13866;50.748;12.630;2022-07-29T10:27:10;3.60;;;2.63;;
26106;SDS011;13866;50.748;12.630;2022-07-29T10:29:35;3.07;;;2.97;;
26106;SDS011;13866;50.748;12.630;2022-07-29T10:32:10;2.60;;;2.50;;
26106;SDS011;13866;50.748;12.630;2022-07-29T10:35:04;2.90;;;2.80;;
26106;SDS011;13866;50.748;12.630;2022-07-29T10:40:22;6.20;;;1.93;;
26106;SDS011;13866;50.748;12.630;2022-07-29T10:43:17;6.77;;;2.20;;
26106;SDS011;13866;50.748;12.630;2022-07-29T10:45:49;6.90;;;3.10;;
26106;SDS011;13866;50.748;12.630;2022-07-29T10:48:21;2.70;;;2.60;;
26106;SDS011;13866;50.748;12.630;2022-07-29T10:51:03;2.80;;;2.73;;
26106;SDS011;13866;50.748;12.630;2022-07-29T10:53:48;5.57;;;2.07;;
26106;SDS011;13866;50.748;12.630;2022-07-29T10:56:28;3.33;;;3.23;;
26106;SDS011;13866;50.748;12.630;2022-07-29T11:01:42;2.43;;;2.33;;
26106;SDS011;13866;50.748;12.630;2022-07-29T11:04:08;3.20;;;3.10;;
26106;SDS011;13866;50.748;12.630;2022-07-29T11:09:31;4.17;;;2.70;;
26106;SDS011;13866;50.748;12.630;2022-07-29T11:11:57;2.53;;;2.17;;
26106;SDS011;13866;50.748;12.630;2022-07-29T11:14:54;8.47;;;3.33;;
26106;SDS011;13866;50.748;12.630;2022-07-29T11:17:17;2.03;;;2.03;;
26106;SDS011;13866;50.748;12.630;2022-07-29T11:19:42;2.27;;;2.27;;
26106;SDS011;13866;50.748;12.630;2022-07-29T11:22:09;5.93;;;3.33;;
26106;SDS011;13866;50.748;12.630;2022-07-29T11:24:36;4.07;;;2.47;;
26106;SDS011;13866;50.748;12.630;2022-07-29T11:29:35;2.53;;;2.33;;
26106;SDS011;13866;50.748;12.630;2022-07-29T11:32:14;3.50;;;3.20;;
26106;SDS011;13866;50.748;12.630;2022-07-29T11:34:44;2.73;;;2.63;;
26106;SDS011;13866;50.748;12.630;2022-07-29T11:39:39;4.13;;;2.60;;
26106;SDS011;13866;50.748;12.630;2022-07-29T11:47:30;2.50;;;2.50;;
26106;SDS011;13866;50.748;12.630;2022-07-29T11:50:00;3.53;;;2.50;;
26106;SDS011;13866;50.748;12.630;2022-07-29T11:52:32;2.40;;;2.30;;
26106;SDS011;13866;50.748;12.630;2022-07-29T11:54:58;2.67;;;2.47;;
26106;SDS011;13866;50.748;12.630;2022-07-29T11:57:27;2.30;;;2.30;;
26106;SDS011;13866;50.748;12.630;2022-07-29T11:59:53;2.87;;;2.73;;
26106;SDS011;13866;50.748;12.630;2022-07-29T12:02:22;4.90;;;2.70;;
26106;SDS011;13866;50.748;12.630;2022-07-29T12:04:51;2.77;;;2.67;;
26106;SDS011;13866;50.748;12.630;2022-07-29T12:07:18;2.90;;;2.90;;
26106;SDS011;13866;50.748;12.630;2022-07-29T12:09:50;3.03;;;2.80;;
26106;SDS011;13866;50.748;12.630;2022-07-29T12:12:17;2.40;;;2.27;;
26106;SDS011;13866;50.748;12.630;2022-07-29T12:14:43;2.53;;;2.40;;
26106;SDS011;13866;50.748;12.630;2022-07-29T12:17:33;2.90;;;2.60;;
26106;SDS011;13866;50.748;12.630;2022-07-29T12:19:59;2.77;;;2.53;;
26106;SDS011;13866;50.748;12.630;2022-07-29T12:22:27;6.13;;;2.67;;
26106;SDS011;13866;50.748;12.630;2022-07-29T12:24:54;2.40;;;2.20;;
26106;SDS011;13866;50.748;12.630;2022-07-29T12:27:21;20.13;;;3.10;;
26106;SDS011;13866;50.748;12.630;2022-07-29T12:29:57;2.77;;;2.57;;
26106;SDS011;13866;50.748;12.630;2022-07-29T12:32:30;6.03;;;2.70;;
26106;SDS011;13866;50.748;12.630;2022-07-29T12:35:01;5.20;;;2.60;;
26106;SDS011;13866;50.748;12.630;2022-07-29T12:37:29;2.67;;;2.30;;
26106;SDS011;13866;50.748;12.630;2022-07-29T12:39:55;3.40;;;2.60;;
26106;SDS011;13866;50.748;12.630;2022-07-29T12:42:21;10.90;;;2.37;;
26106;SDS011;13866;50.748;12.630;2022-07-29T12:44:47;2.70;;;2.60;;
26106;SDS011;13866;50.748;12.630;2022-07-29T12:47:14;2.73;;;2.60;;
26106;SDS011;13866;50.748;12.630;2022-07-29T12:49:40;2.20;;;2.10;;
26106;SDS011;13866;50.748;12.630;2022-07-29T12:52:27;2.37;;;2.17;;
26106;SDS011;13866;50.748;12.630;2022-07-29T12:54:54;2.57;;;2.47;;
26106;SDS011;13866;50.748;12.630;2022-07-29T12:57:20;2.43;;;2.20;;
26106;SDS011;13866;50.748;12.630;2022-07-29T12:59:58;2.83;;;2.60;;
26106;SDS011;13866;50.748;12.630;2022-07-29T13:02:24;7.43;;;2.43;;
26106;SDS011;13866;50.748;12.630;2022-07-29T13:04:56;3.13;;;2.93;;
26106;SDS011;13866;50.748;12.630;2022-07-29T13:07:29;6.63;;;2.93;;
26106;SDS011;13866;50.748;12.630;2022-07-29T13:10:16;2.63;;;2.53;;
26106;SDS011;13866;50.748;12.630;2022-07-29T13:15:40;8.47;;;3.60;;
26106;SDS011;13866;50.748;12.630;2022-07-29T13:18:26;6.20;;;2.83;;
26106;SDS011;13866;50.748;12.630;2022-07-29T13:20:53;7.30;;;2.70;;
26106;SDS011;13866;50.748;12.630;2022-07-29T13:23:18;7.33;;;2.97;;
26106;SDS011;13866;50.748;12.630;2022-07-29T13:25:44;4.70;;;2.60;;
26106;SDS011;13866;50.748;12.630;2022-07-29T13:28:09;4.07;;;3.77;;
26106;SDS011;13866;50.748;12.630;2022-07-29T13:30:36;3.20;;;3.00;;
26106;SDS011;13866;50.748;12.630;2022-07-29T13:33:02;5.60;;;3.43;;
26106;SDS011;13866;50.748;12.630;2022-07-29T13:35:28;3.20;;;3.10;;
26106;SDS011;13866;50.748;12.630;2022-07-29T13:37:54;4.17;;;3.33;;
26106;SDS011;13866;50.748;12.630;2022-07-29T13:40:20;3.17;;;2.90;;
26106;SDS011;13866;50.748;12.630;2022-07-29T13:42:46;8.57;;;3.97;;
26106;SDS011;13866;50.748;12.630;2022-07-29T13:45:11;3.43;;;2.93;;
26106;SDS011;13866;50.748;12.630;2022-07-29T13:47:37;3.80;;;3.60;;
26106;SDS011;13866;50.748;12.630;2022-07-29T13:50:03;3.33;;;3.23;;
26106;SDS011;13866;50.748;12.630;2022-07-29T13:52:30;2.93;;;2.93;;
26106;SDS011;13866;50.748;12.630;2022-07-29T13:54:56;8.77;;;3.50;;
26106;SDS011;13866;50.748;12.630;2022-07-29T13:57:21;3.37;;;3.17;;
26106;SDS011;13866;50.748;12.630;2022-07-29T13:59:47;3.50;;;3.17;;
26106;SDS011;13866;50.748;12.630;2022-07-29T14:02:12;7.40;;;4.37;;
26106;SDS011;13866;50.748;12.630;2022-07-29T14:04:38;14.03;;;5.43;;
26106;SDS011;13866;50.748;12.630;2022-07-29T14:07:04;8.80;;;4.70;;
26106;SDS011;13866;50.748;12.630;2022-07-29T14:09:30;10.63;;;5.30;;
26106;SDS011;13866;50.748;12.630;2022-07-29T14:11:56;6.83;;;5.37;;
26106;SDS011;13866;50.748;12.630;2022-07-29T14:14:21;9.80;;;5.73;;
26106;SDS011;13866;50.748;12.630;2022-07-29T14:16:47;10.63;;;6.27;;
26106;SDS011;13866;50.748;12.630;2022-07-29T14:19:12;8.50;;;6.00;;
26106;SDS011;13866;50.748;12.630;2022-07-29T14:21:38;17.30;;;7.70;;
26106;SDS011;13866;50.748;12.630;2022-07-29T14:24:04;9.03;;;7.37;;
26106;SDS011;13866;50.748;12.630;2022-07-29T14:26:30;26.63;;;9.07;;
26106;SDS011;13866;50.748;12.630;2022-07-29T14:28:55;9.03;;;6.30;;
26106;SDS011;13866;50.748;12.630;2022-07-29T14:31:21;15.57;;;6.80;;
26106;SDS011;13866;50.748;12.630;2022-07-29T14:33:46;11.13;;;7.73;;
26106;SDS011;13866;50.748;12.630;2022-07-29T14:36:12;25.63;;;7.67;;
26106;SDS011;13866;50.748;12.630;2022-07-29T14:38:38;12.43;;;7.40;;
26106;SDS011;13866;50.748;12.630;2022-07-29T14:41:05;11.80;;;6.83;;
26106;SDS011;13866;50.748;12.630;2022-07-29T14:43:31;6.57;;;6.10;;
26106;SDS011;13866;50.748;12.630;2022-07-29T14:45:57;25.43;;;7.27;;
26106;SDS011;13866;50.748;12.630;2022-07-29T14:48:22;15.93;;;7.47;;
26106;SDS011;13866;50.748;12.630;2022-07-29T14:50:48;9.50;;;6.73;;
26106;SDS011;13866;50.748;12.630;2022-07-29T14:53:13;14.20;;;7.33;;
26106;SDS011;13866;50.748;12.630;2022-07-29T14:55:39;8.20;;;6.60;;
26106;SDS011;13866;50.748;12.630;2022-07-29T14:58:05;7.03;;;6.43;;
26106;SDS011;13866;50.748;12.630;2022-07-29T15:00:31;8.70;;;7.90;;
26106;SDS011;13866;50.748;12.630;2022-07-29T15:02:58;10.13;;;7.80;;
26106;SDS011;13866;50.748;12.630;2022-07-29T15:05:25;8.67;;;7.83;;
26106;SDS011;13866;50.748;12.630;2022-07-29T15:07:50;12.77;;;7.27;;